Time;durP1;ratioP1;P1;durP2;ratioP2;P2;SDS_P1;SDS_P2;PMS_P1;PMS_P2;Temp;Humidity;BMP_temperature;BMP_pressure;BME280_temperature;BME280_humidity;BME280_pressure;Samples;Min_cycle;Max_cycle;Signal;HPM_P1;HPM_P2
2023/04/15 00:00:41;;;;;;;0.47;0.47;;;;;;;24.83;33.74;98404.91;1864139;76;28090;-41
2023/04/15 00:03:29;;;;;;;0.40;0.40;;;;;;;24.84;33.71;98397.76;1857006;76;28221;-42
2023/04/15 00:06:18;;;;;;;0.70;0.30;;;;;;;24.84;33.72;98396.92;1868559;76;28184;-42
2023/04/15 00:09:06;;;;;;;0.60;0.60;;;;;;;24.84;33.71;98397.76;1863913;76;28343;-42
2023/04/15 00:11:55;;;;;;;0.57;0.40;;;;;;;24.83;33.73;98396.67;1860648;76;28257;-41
2023/04/15 00:14:43;;;;;;;0.90;0.53;;;;;;;24.83;33.76;98400.80;1831037;77;28191;-41
2023/04/15 00:17:32;;;;;;;0.40;0.40;;;;;;;24.83;33.74;98403.54;1837725;77;28225;-40
2023/04/15 00:20:21;;;;;;;0.50;0.50;;;;;;;24.85;33.75;98408.20;1831804;77;28221;-41
2023/04/15 00:23:09;;;;;;;0.50;0.50;;;;;;;24.87;33.72;98404.62;1853034;77;28142;-41
2023/04/15 00:25:57;;;;;;;0.42;0.42;;;;;;;24.87;33.71;98396.39;1844128;77;28178;-42
2023/04/15 00:28:46;;;;;;;0.28;0.28;;;;;;;24.88;33.70;98385.69;1824224;77;28188;-40
2023/04/15 00:31:35;;;;;;;0.37;0.37;;;;;;;24.84;33.74;98390.06;1840884;77;28276;-42
2023/04/15 00:34:24;;;;;;;0.30;0.30;;;;;;;24.86;33.74;98402.42;1845038;77;28611;-41
2023/04/15 00:37:13;;;;;;;0.50;0.50;;;;;;;24.85;33.72;98398.59;1815671;77;30279;-41
2023/04/15 00:40:02;;;;;;;0.60;0.60;;;;;;;24.85;33.73;98393.09;1853944;77;28212;-41
2023/04/15 00:42:51;;;;;;;0.23;0.20;;;;;;;24.85;33.74;98400.80;1844341;77;28162;-41
2023/04/15 00:45:40;;;;;;;0.40;0.40;;;;;;;24.85;33.73;98401.34;1843563;77;28207;-41
2023/04/15 00:48:28;;;;;;;2.02;0.47;;;;;;;24.85;33.73;98399.42;1833689;77;28543;-41
2023/04/15 00:51:17;;;;;;;0.40;0.40;;;;;;;24.85;33.77;98406.83;1844368;77;28275;-42
2023/04/15 00:54:06;;;;;;;0.30;0.30;;;;;;;24.84;33.76;98410.13;1846097;77;28181;-42
2023/04/15 00:56:55;;;;;;;0.30;0.30;;;;;;;24.85;33.75;98405.45;1836754;77;28164;-41
2023/04/15 00:59:43;;;;;;;0.40;0.40;;;;;;;24.85;33.73;98396.67;1829293;77;28296;-41
2023/04/15 01:02:32;;;;;;;0.40;0.40;;;;;;;24.84;33.76;98393.64;1844880;77;28239;-42
2023/04/15 01:05:22;;;;;;;0.50;0.50;;;;;;;24.85;33.76;98399.96;1846068;77;28172;-41
2023/04/15 01:08:11;;;;;;;0.40;0.40;;;;;;;24.83;33.75;98404.91;1855307;76;28184;-40
2023/04/15 01:11:02;;;;;;;0.30;0.30;;;;;;;24.84;33.78;98406.55;1850474;76;28263;-40
2023/04/15 01:13:52;;;;;;;0.40;0.40;;;;;;;24.84;33.76;98400.51;1855066;76;28244;-41
2023/04/15 01:16:40;;;;;;;0.30;0.30;;;;;;;24.83;33.77;98397.50;1842910;77;28427;-39
2023/04/15 01:19:29;;;;;;;0.30;0.30;;;;;;;24.82;33.76;98395.84;1853669;77;28144;-40
2023/04/15 01:22:18;;;;;;;0.20;0.20;;;;;;;24.82;33.75;98394.47;1839170;77;28275;-40
2023/04/15 01:25:12;;;;;;;0.30;0.30;;;;;;;24.82;33.77;98393.64;1848078;77;28751;-40
2023/04/15 01:28:02;;;;;;;0.30;0.30;;;;;;;24.82;33.80;98391.72;1855361;77;28255;-40
2023/04/15 01:30:50;;;;;;;0.40;0.40;;;;;;;24.82;33.80;98392.27;1854471;77;28210;-40
2023/04/15 01:33:40;;;;;;;0.30;0.30;;;;;;;24.84;33.77;98396.92;1836348;77;28307;-41
2023/04/15 01:36:29;;;;;;;0.40;0.40;;;;;;;24.83;33.78;98404.37;1851120;77;28259;-40
2023/04/15 01:39:18;;;;;;;0.35;0.35;;;;;;;24.85;33.78;98406.83;1848096;77;28361;-41
2023/04/15 01:42:07;;;;;;;0.82;0.37;;;;;;;24.87;33.74;98404.62;1845640;77;28138;-40
2023/04/15 01:44:55;;;;;;;0.20;0.20;;;;;;;24.82;33.80;98399.96;1838861;77;28133;-40
2023/04/15 01:47:44;;;;;;;0.60;0.30;;;;;;;24.83;33.84;98404.37;1853631;77;28588;-40
2023/04/15 01:50:32;;;;;;;0.28;0.28;;;;;;;24.83;33.84;98403.54;1851854;77;28274;-40
2023/04/15 01:53:21;;;;;;;0.30;0.30;;;;;;;24.81;33.87;98401.05;1841223;77;35190;-40
2023/04/15 01:56:09;;;;;;;0.30;0.30;;;;;;;24.81;33.89;98407.11;1839644;77;28607;-40
2023/04/15 01:58:58;;;;;;;0.20;0.20;;;;;;;24.81;33.92;98411.23;1823171;77;28270;-40
2023/04/15 02:01:47;;;;;;;0.20;0.20;;;;;;;24.80;33.95;98411.78;1854379;76;28643;-41
2023/04/15 02:04:36;;;;;;;0.50;0.50;;;;;;;24.80;33.97;98408.20;1858506;76;28279;-40
2023/04/15 02:07:25;;;;;;;0.30;0.30;;;;;;;24.82;33.94;98401.34;1823715;77;28293;-41
2023/04/15 02:10:15;;;;;;;0.30;0.30;;;;;;;24.81;33.93;98398.88;1854564;76;28106;-40
2023/04/15 02:13:03;;;;;;;0.70;0.40;;;;;;;24.79;34.02;98406.00;1853937;77;28250;-40
2023/04/15 02:15:52;;;;;;;0.20;0.20;;;;;;;24.81;34.00;98412.61;1858659;76;28239;-41
2023/04/15 02:18:40;;;;;;;0.30;0.30;;;;;;;24.80;34.06;98414.52;1879297;76;28944;-41
2023/04/15 02:21:31;;;;;;;0.20;0.20;;;;;;;24.82;34.05;98406.00;1829884;77;28328;-41
2023/04/15 02:24:20;;;;;;;0.30;0.30;;;;;;;24.79;34.08;98392.80;1840637;77;28829;-41
2023/04/15 02:27:08;;;;;;;0.30;0.30;;;;;;;24.80;34.11;98399.96;1829428;77;28216;-41
2023/04/15 02:29:57;;;;;;;0.20;0.20;;;;;;;24.81;34.14;98401.63;1841853;77;28199;-40
2023/04/15 02:32:45;;;;;;;0.33;0.33;;;;;;;24.71;34.14;98388.69;1860324;76;28254;-40
2023/04/15 02:35:35;;;;;;;0.30;0.30;;;;;;;24.79;34.17;98396.92;1867869;76;28237;-40
2023/04/15 02:38:23;;;;;;;0.50;0.50;;;;;;;24.80;34.19;98395.84;1868794;76;28204;-40
2023/04/15 02:41:12;;;;;;;0.45;0.40;;;;;;;24.81;34.17;98398.88;1854155;76;28204;-40
2023/04/15 02:44:01;;;;;;;0.30;0.30;;;;;;;24.78;34.16;98403.53;1852058;76;28348;-41
2023/04/15 02:46:51;;;;;;;0.20;0.20;;;;;;;24.79;34.23;98403.25;1857720;76;28325;-40
2023/04/15 02:49:39;;;;;;;0.33;0.30;;;;;;;24.79;34.24;98403.80;1847445;76;28254;-41
2023/04/15 02:52:28;;;;;;;0.30;0.30;;;;;;;24.78;34.27;98401.63;1869894;76;28176;-41
2023/04/15 02:55:16;;;;;;;0.23;0.23;;;;;;;24.79;34.25;98403.25;1870452;76;28054;-40
2023/04/15 02:58:05;;;;;;;1.10;0.42;;;;;;;24.79;34.26;98399.13;1849635;76;28222;-40
2023/04/15 03:00:54;;;;;;;0.27;0.27;;;;;;;24.79;34.23;98399.13;1868151;76;28206;-40
2023/04/15 03:03:42;;;;;;;0.28;0.28;;;;;;;24.81;34.22;98404.37;1867095;76;28240;-41
2023/04/15 03:06:32;;;;;;;0.90;0.33;;;;;;;24.80;34.23;98398.59;1846699;77;28119;-40
2023/04/15 03:09:20;;;;;;;0.30;0.30;;;;;;;24.79;34.26;98393.64;1858730;76;28250;-41
2023/04/15 03:12:08;;;;;;;0.30;0.30;;;;;;;24.80;34.23;98398.59;1867297;76;28645;-40
2023/04/15 03:14:57;;;;;;;0.40;0.40;;;;;;;24.79;34.27;98400.50;1869314;76;28123;-41
2023/04/15 03:17:48;;;;;;;0.50;0.50;;;;;;;24.79;34.30;98403.25;1852688;76;28208;-40
2023/04/15 03:20:36;;;;;;;0.23;0.23;;;;;;;24.79;34.25;98403.80;1869275;76;28314;-40
2023/04/15 03:23:25;;;;;;;0.23;0.23;;;;;;;24.79;34.31;98401.05;1867860;76;28250;-41
2023/04/15 03:26:29;;;;;;;0.30;0.30;;;;;;;24.77;34.28;98397.75;1856936;76;28250;-40
2023/04/15 03:29:19;;;;;;;0.13;0.13;;;;;;;24.75;34.28;98389.77;1854868;76;28226;-40
2023/04/15 03:32:09;;;;;;;0.30;0.30;;;;;;;24.77;34.32;98396.38;1868662;76;28133;-40
2023/04/15 03:34:59;;;;;;;0.33;0.33;;;;;;;24.76;34.33;98391.97;1864755;76;28145;-41
2023/04/15 03:37:48;;;;;;;0.30;0.30;;;;;;;24.74;34.34;98393.06;1859477;76;28317;-40
2023/04/15 03:40:36;;;;;;;0.30;0.30;;;;;;;24.77;34.34;98390.89;1853793;76;28287;-40
2023/04/15 03:43:24;;;;;;;0.40;0.40;;;;;;;24.76;34.33;98398.84;1866797;76;28231;-41
2023/04/15 03:46:12;;;;;;;0.23;0.23;;;;;;;24.76;34.29;98394.21;1868175;76;28265;-40
2023/04/15 03:49:02;;;;;;;0.20;0.20;;;;;;;24.77;34.34;98399.13;1848939;76;28286;-41
2023/04/15 03:51:50;;;;;;;0.20;0.20;;;;;;;24.76;34.34;98389.23;1861577;76;28271;-42
2023/04/15 03:54:39;;;;;;;0.20;0.20;;;;;;;24.77;34.33;98392.27;1864248;76;28342;-40
2023/04/15 03:57:27;;;;;;;0.37;0.37;;;;;;;24.76;34.35;98391.97;1861398;76;28664;-42
2023/04/15 04:00:16;;;;;;;0.40;0.30;;;;;;;24.76;34.32;98399.70;1869081;76;28162;-42
2023/04/15 04:03:04;;;;;;;0.50;0.50;;;;;;;24.74;34.36;98405.42;1854817;76;28145;-42
2023/04/15 04:05:53;;;;;;;0.20;0.20;;;;;;;24.74;34.36;98402.67;1869345;76;28179;-42
2023/04/15 04:08:41;;;;;;;0.28;0.28;;;;;;;24.74;34.37;98399.09;1868938;76;28291;-40
2023/04/15 04:11:29;;;;;;;0.20;0.20;;;;;;;24.76;34.31;98407.94;1867357;76;28322;-40
2023/04/15 04:14:18;;;;;;;0.30;0.30;;;;;;;24.76;34.34;98409.31;1838727;76;28370;-41
2023/04/15 04:17:06;;;;;;;0.20;0.20;;;;;;;24.75;34.50;98406.25;1821624;77;28237;-40
2023/04/15 04:19:55;;;;;;;0.33;0.33;;;;;;;24.77;34.42;98412.32;1827505;77;28251;-42
2023/04/15 04:22:43;;;;;;;0.33;0.33;;;;;;;24.76;34.46;98416.69;1827062;77;28197;-40
2023/04/15 04:25:32;;;;;;;0.30;0.30;;;;;;;24.74;34.46;98417.78;1852570;77;28252;-40
2023/04/15 04:28:20;;;;;;;0.20;0.20;;;;;;;24.76;34.46;98415.32;1819577;77;33082;-40
2023/04/15 04:31:08;;;;;;;0.30;0.30;;;;;;;24.75;34.45;98411.74;1844546;77;32114;-41
2023/04/15 04:33:56;;;;;;;0.60;0.20;;;;;;;24.73;34.43;98412.57;1831686;77;28286;-40
2023/04/15 04:36:44;;;;;;;0.53;0.30;;;;;;;24.76;34.43;98413.44;1839640;77;28227;-40
2023/04/15 04:39:33;;;;;;;0.23;0.23;;;;;;;24.73;34.42;98414.77;1825691;77;28303;-40
2023/04/15 04:42:21;;;;;;;0.30;0.30;;;;;;;24.76;34.43;98412.58;1840079;77;28227;-41
2023/04/15 04:45:10;;;;;;;0.10;0.10;;;;;;;24.75;34.44;98414.48;1848184;77;28084;-40
2023/04/15 04:47:58;;;;;;;0.35;0.20;;;;;;;24.74;34.44;98412.83;1850897;77;33193;-40
2023/04/15 04:50:47;;;;;;;0.20;0.20;;;;;;;24.73;34.46;98414.77;1828480;77;28267;-41
2023/04/15 04:53:36;;;;;;;0.30;0.30;;;;;;;24.73;34.46;98413.95;1830403;77;28494;-40
2023/04/15 04:56:25;;;;;;;0.30;0.20;;;;;;;24.72;34.53;98416.40;1841783;77;28256;-40
2023/04/15 04:59:13;;;;;;;0.20;0.20;;;;;;;24.72;34.50;98426.02;1841778;77;31184;-40
2023/04/15 05:02:02;;;;;;;0.23;0.23;;;;;;;24.72;34.52;98426.84;1817680;77;28277;-40
2023/04/15 05:04:53;;;;;;;0.20;0.20;;;;;;;24.72;34.48;98425.47;1827572;77;28357;-40
2023/04/15 05:07:41;;;;;;;0.60;0.40;;;;;;;24.72;34.51;98424.09;1842243;77;28272;-40
2023/04/15 05:10:29;;;;;;;0.20;0.20;;;;;;;24.71;34.51;98421.64;1844334;77;28249;-40
2023/04/15 05:13:18;;;;;;;0.17;0.17;;;;;;;24.72;34.48;98419.14;1856432;77;28137;-40
2023/04/15 05:16:07;;;;;;;0.30;0.30;;;;;;;24.70;34.48;98424.92;1830404;76;28959;-41
2023/04/15 05:18:55;;;;;;;0.25;0.25;;;;;;;24.71;34.50;98427.12;1841821;77;28484;-40
2023/04/15 05:21:43;;;;;;;0.28;0.28;;;;;;;24.71;34.50;98436.17;1827087;77;28271;-41
2023/04/15 05:24:32;;;;;;;0.23;0.23;;;;;;;24.70;34.26;98434.54;1842818;77;28242;-41
2023/04/15 05:27:21;;;;;;;0.50;0.50;;;;;;;24.69;33.67;98437.57;1843163;77;28228;-41
2023/04/15 05:30:10;;;;;;;0.40;0.40;;;;;;;24.65;33.50;98433.70;1840376;77;28142;-41
2023/04/15 05:32:58;;;;;;;0.50;0.50;;;;;;;24.53;33.06;98432.59;1822891;76;28230;-41
2023/04/15 05:35:47;;;;;;;0.50;0.50;;;;;;;24.52;33.14;98436.98;1843678;77;28240;-40
2023/04/15 05:38:36;;;;;;;0.47;0.47;;;;;;;24.51;33.25;98427.92;1849210;77;28134;-40
2023/04/15 05:41:24;;;;;;;0.20;0.20;;;;;;;24.51;33.40;98426.55;1855783;77;28181;-41
2023/04/15 05:44:13;;;;;;;0.70;0.33;;;;;;;24.52;33.38;98424.64;1850414;77;28261;-40
2023/04/15 05:47:02;;;;;;;0.20;0.20;;;;;;;24.53;33.02;98427.64;1848243;76;28185;-40
2023/04/15 05:49:50;;;;;;;0.30;0.30;;;;;;;24.55;32.95;98437.83;1834955;77;28128;-40
2023/04/15 05:52:39;;;;;;;0.20;0.20;;;;;;;24.52;32.97;98450.17;1848954;77;28153;-40
2023/04/15 05:55:28;;;;;;;0.20;0.20;;;;;;;24.52;33.03;98451.55;1840322;77;28193;-41
2023/04/15 05:58:16;;;;;;;0.30;0.30;;;;;;;24.51;33.10;98432.58;1851510;77;28242;-40
2023/04/15 06:01:05;;;;;;;0.20;0.20;;;;;;;24.52;33.11;98439.20;1852260;77;28583;-41
2023/04/15 06:03:53;;;;;;;0.20;0.20;;;;;;;24.45;33.12;98420.79;1855137;77;28221;-41
2023/04/15 06:06:41;;;;;;;0.17;0.17;;;;;;;24.54;33.15;98439.74;1855975;77;28221;-41
2023/04/15 06:09:30;;;;;;;0.30;0.30;;;;;;;24.53;33.18;98442.73;1831843;77;28696;-41
2023/04/15 06:12:18;;;;;;;0.20;0.20;;;;;;;24.51;33.20;98441.65;1854551;77;28141;-40
2023/04/15 06:15:09;;;;;;;0.50;0.50;;;;;;;24.52;33.23;98430.95;1841269;77;28257;-40
2023/04/15 06:17:58;;;;;;;0.23;0.23;;;;;;;24.51;33.28;98429.30;1843669;77;28154;-40
2023/04/15 06:20:47;;;;;;;0.40;0.40;;;;;;;24.51;33.29;98433.95;1865075;76;28266;-39
2023/04/15 06:23:36;;;;;;;0.30;0.30;;;;;;;24.52;33.30;98428.21;1872176;76;28226;-42
2023/04/15 06:26:25;;;;;;;0.30;0.30;;;;;;;24.52;33.32;98427.38;1868980;76;28262;-40
2023/04/15 06:29:13;;;;;;;0.30;0.30;;;;;;;24.52;33.33;98430.13;1843950;77;28174;-40
2023/04/15 06:32:02;;;;;;;0.30;0.20;;;;;;;24.51;33.34;98432.58;1861735;76;28187;-40
2023/04/15 06:34:50;;;;;;;0.40;0.40;;;;;;;24.47;33.45;98435.06;1873262;76;28333;-39
2023/04/15 06:37:39;;;;;;;0.23;0.23;;;;;;;24.50;33.39;98440.56;1868542;76;28244;-40
2023/04/15 06:40:27;;;;;;;0.30;0.30;;;;;;;24.52;33.42;98435.08;1854600;76;28137;-39
2023/04/15 06:43:15;;;;;;;0.50;0.30;;;;;;;24.52;33.43;98436.45;1840686;77;28196;-39
2023/04/15 06:46:04;;;;;;;0.30;0.30;;;;;;;24.52;33.44;98441.94;1867109;76;28148;-40
2023/04/15 06:48:52;;;;;;;0.70;0.20;;;;;;;24.52;33.44;98448.80;1866616;76;28207;-39
2023/04/15 06:51:42;;;;;;;0.30;0.30;;;;;;;24.54;33.40;98450.72;1859226;76;28216;-40
2023/04/15 06:54:31;;;;;;;0.20;0.20;;;;;;;24.56;33.40;98454.56;1858055;76;28210;-39
2023/04/15 06:57:19;;;;;;;0.30;0.30;;;;;;;24.54;33.38;98453.47;1859709;76;28200;-40
2023/04/15 07:00:10;;;;;;;0.30;0.30;;;;;;;24.55;33.39;98465.28;1827133;77;28187;-39
2023/04/15 07:03:02;;;;;;;0.23;0.23;;;;;;;24.56;33.37;98468.28;1841226;77;28138;-42
2023/04/15 07:05:51;;;;;;;0.40;0.40;;;;;;;24.56;33.34;98469.66;1845343;77;28326;-42
2023/04/15 07:08:40;;;;;;;0.30;0.30;;;;;;;24.56;33.35;98468.28;1847377;77;28214;-41
2023/04/15 07:11:29;;;;;;;0.30;0.30;;;;;;;24.57;33.37;98478.19;1840345;76;28170;-42
2023/04/15 07:14:18;;;;;;;0.30;0.30;;;;;;;24.55;33.38;98482.56;1840235;77;28248;-40
2023/04/15 07:17:06;;;;;;;0.30;0.30;;;;;;;24.57;33.39;98480.39;1866359;76;28281;-40
2023/04/15 07:19:54;;;;;;;0.10;0.10;;;;;;;24.55;33.41;98473.52;1866231;76;28270;-40
2023/04/15 07:22:43;;;;;;;0.30;0.30;;;;;;;24.55;33.39;98467.45;1840640;77;28285;-40
2023/04/15 07:25:31;;;;;;;0.20;0.20;;;;;;;24.56;33.43;98471.03;1821479;77;28258;-40
2023/04/15 07:28:19;;;;;;;0.30;0.30;;;;;;;24.56;33.45;98465.54;1847834;77;28270;-41
2023/04/15 07:33:56;;;;;;;0.40;0.40;;;;;;;24.56;33.52;98438.09;1847430;77;33106;-41
2023/04/15 07:36:44;;;;;;;0.70;0.40;;;;;;;24.55;33.52;98423.53;1830681;77;28300;-41
2023/04/15 07:39:33;;;;;;;0.20;0.20;;;;;;;24.58;33.52;98424.36;1845477;77;28253;-40
2023/04/15 07:42:22;;;;;;;0.10;0.10;;;;;;;24.56;33.53;98421.06;1842104;77;28193;-41
2023/04/15 07:45:11;;;;;;;0.93;0.30;;;;;;;24.59;33.53;98427.94;1844128;77;28118;-41
2023/04/15 07:48:00;;;;;;;0.30;0.30;;;;;;;24.58;33.57;98449.08;1844020;77;28609;-41
2023/04/15 07:50:48;;;;;;;0.88;0.37;;;;;;;24.55;33.61;98485.30;1851299;77;28134;-41
2023/04/15 07:53:37;;;;;;;0.20;0.20;;;;;;;24.55;33.60;98514.13;1854104;77;28240;-41
2023/04/15 07:56:26;;;;;;;0.40;0.40;;;;;;;24.57;33.57;98479.02;1848354;77;28178;-41
2023/04/15 07:59:16;;;;;;;0.30;0.30;;;;;;;24.56;33.58;98462.25;1843705;77;28460;-41
2023/04/15 08:02:05;;;;;;;0.30;0.30;;;;;;;24.56;33.58;98478.73;1844187;76;28224;-41
2023/04/15 08:04:53;;;;;;;0.40;0.40;;;;;;;24.56;33.58;98460.05;1846457;77;28213;-41
2023/04/15 08:07:41;;;;;;;0.95;0.50;;;;;;;24.55;33.52;98475.69;1852614;77;28192;-40
2023/04/15 08:10:30;;;;;;;0.60;0.50;;;;;;;24.53;33.53;98497.65;1848292;77;28165;-41
2023/04/15 08:13:18;;;;;;;0.50;0.50;;;;;;;24.53;33.53;98505.34;1831038;77;28353;-41
2023/04/15 08:16:23;;;;;;;0.62;0.62;;;;;;;24.52;33.52;98505.09;1822662;77;28270;-40
2023/04/15 08:19:11;;;;;;;0.70;0.70;;;;;;;24.51;33.44;98485.58;1833241;77;28203;-40
2023/04/15 08:22:00;;;;;;;1.42;0.68;;;;;;;24.49;33.54;98499.30;1855646;76;28315;-39
2023/04/15 08:24:48;;;;;;;1.30;0.90;;;;;;;24.49;33.60;98505.62;1874889;76;28208;-40
2023/04/15 08:27:37;;;;;;;0.90;0.90;;;;;;;24.55;33.49;98507.27;1875416;76;28209;-40
2023/04/15 08:30:25;;;;;;;1.27;1.27;;;;;;;24.54;33.48;98498.77;1866226;76;28708;-40
2023/04/15 08:33:13;;;;;;;1.35;1.25;;;;;;;24.54;33.31;98508.38;1874423;76;28241;-39
2023/04/15 08:36:02;;;;;;;1.12;1.02;;;;;;;24.55;33.20;98505.09;1877237;76;28238;-39
2023/04/15 08:38:50;;;;;;;1.27;1.10;;;;;;;24.52;33.31;98500.97;1861274;76;28218;-39
2023/04/15 08:41:51;;;;;;;1.20;1.20;;;;;;;24.50;33.45;98514.69;1864356;76;33082;-40
2023/04/15 08:44:40;;;;;;;0.88;0.80;;;;;;;24.51;33.48;98507.55;1865659;76;28218;-41
2023/04/15 08:47:31;;;;;;;1.27;1.17;;;;;;;24.47;33.67;98516.59;1857955;75;28305;-39
2023/04/15 08:50:20;;;;;;;1.70;1.60;;;;;;;24.47;33.65;98521.54;1870600;76;28736;-38
2023/04/15 08:53:10;;;;;;;2.00;1.80;;;;;;;24.49;33.72;98519.34;1867853;76;28856;-38
2023/04/15 08:56:02;;;;;;;1.77;1.67;;;;;;;24.50;33.52;98518.80;1860733;76;28816;-38
2023/04/15 08:58:51;;;;;;;2.10;2.00;;;;;;;24.49;33.39;98519.89;1879793;75;28285;-38
2023/04/15 09:01:41;;;;;;;2.77;1.92;;;;;;;24.47;33.40;98523.45;1849338;77;28241;-38
2023/04/15 09:04:30;;;;;;;2.45;2.17;;;;;;;24.46;33.36;98519.88;1845465;77;28350;-38
2023/04/15 09:07:19;;;;;;;3.50;2.55;;;;;;;24.45;33.27;98525.65;1852622;77;28300;-39
2023/04/15 09:10:09;;;;;;;1.87;1.77;;;;;;;24.48;33.20;98560.23;1848186;77;28283;-38
2023/04/15 09:12:57;;;;;;;2.00;1.90;;;;;;;24.46;33.34;98541.84;1812151;77;28464;-38
2023/04/15 09:15:47;;;;;;;3.30;2.00;;;;;;;24.47;33.35;98553.66;1840058;77;30838;-38
2023/04/15 09:18:37;;;;;;;4.78;2.25;;;;;;;24.47;33.34;98550.37;1844719;77;28245;-38
2023/04/15 09:21:26;;;;;;;3.62;2.10;;;;;;;24.47;33.29;98542.12;1829962;77;28339;-40
2023/04/15 09:24:15;;;;;;;2.35;1.80;;;;;;;24.46;33.39;98553.36;1839784;77;28303;-39
2023/04/15 09:27:03;;;;;;;3.27;2.02;;;;;;;24.45;33.39;98563.54;1824015;77;28277;-38
2023/04/15 09:29:53;;;;;;;2.47;2.12;;;;;;;24.47;33.38;98577.82;1824682;77;30274;-38
2023/04/15 09:32:52;;;;;;;2.27;2.00;;;;;;;24.42;33.34;98563.23;1827821;77;28308;-38
2023/04/15 09:35:40;;;;;;;2.87;2.00;;;;;;;24.45;33.36;98555.30;1803713;78;28504;-38
2023/04/15 09:38:28;;;;;;;2.13;1.90;;;;;;;24.46;33.38;98557.48;1842507;77;28342;-37
2023/04/15 09:41:18;;;;;;;1.90;1.80;;;;;;;24.46;33.39;98567.92;1843455;77;28356;-37
2023/04/15 09:44:09;;;;;;;3.58;1.80;;;;;;;24.43;33.42;98564.91;1843606;77;28441;-37
2023/04/15 09:46:57;;;;;;;2.10;1.90;;;;;;;24.44;33.34;98574.23;1834965;77;28242;-38
2023/04/15 09:49:58;;;;;;;3.42;2.10;;;;;;;24.45;33.38;98590.16;1844921;77;28265;-38
2023/04/15 09:52:47;;;;;;;2.15;2.00;;;;;;;24.45;33.33;98596.48;1847607;77;28276;-39
2023/04/15 09:55:35;;;;;;;1.80;1.70;;;;;;;24.41;33.34;98619.25;1843723;77;28396;-38
2023/04/15 09:58:26;;;;;;;2.55;1.75;;;;;;;24.37;33.34;98636.78;1841379;76;28284;-38
2023/04/15 10:01:14;;;;;;;2.67;2.10;;;;;;;24.36;33.34;98658.48;1845847;77;28351;-38
2023/04/15 10:04:06;;;;;;;2.27;2.08;;;;;;;24.36;33.33;98690.59;1852511;76;28239;-38
2023/04/15 10:06:55;;;;;;;3.85;2.17;;;;;;;24.33;33.29;98672.73;1856641;77;28237;-38
2023/04/15 10:09:45;;;;;;;2.05;1.90;;;;;;;24.29;33.25;98651.57;1825568;77;28561;-38
2023/04/15 10:12:36;;;;;;;2.83;1.83;;;;;;;24.36;33.23;98665.34;1832811;77;28359;-38
2023/04/15 10:15:26;;;;;;;1.87;1.77;;;;;;;24.37;33.25;98663.41;1843842;77;28348;-38
2023/04/15 10:18:17;;;;;;;2.20;1.93;;;;;;;24.35;33.23;98666.97;1837010;76;28375;-38
2023/04/15 10:21:06;;;;;;;1.70;1.60;;;;;;;24.36;33.23;98663.14;1791561;78;27965;-38
2023/04/15 10:23:55;;;;;;;2.70;1.60;;;;;;;24.34;33.27;98648.86;1812187;78;28833;-38
2023/04/15 10:26:45;;;;;;;1.85;1.75;;;;;;;24.34;33.24;98643.38;1836339;77;28308;-38
2023/04/15 10:29:35;;;;;;;1.65;1.55;;;;;;;24.34;33.25;98657.09;1831819;77;28288;-38
2023/04/15 10:32:25;;;;;;;1.72;1.62;;;;;;;24.35;33.30;98656.81;1844443;77;28325;-39
2023/04/15 10:35:14;;;;;;;1.95;1.85;;;;;;;24.32;33.26;98657.34;1844041;77;28206;-38
2023/04/15 10:38:05;;;;;;;2.35;1.82;;;;;;;24.33;33.26;98649.94;1860444;75;28206;-38
2023/04/15 10:40:53;;;;;;;2.60;1.82;;;;;;;24.32;33.30;98666.14;1860888;75;28757;-38
2023/04/15 10:43:50;;;;;;;2.13;1.70;;;;;;;24.30;33.29;98662.27;1831720;77;28316;-38
2023/04/15 10:46:41;;;;;;;1.80;1.70;;;;;;;24.31;33.32;98664.48;1831773;77;28321;-38
2023/04/15 10:49:29;;;;;;;3.15;1.57;;;;;;;24.28;33.43;98664.46;1864777;76;28292;-38
2023/04/15 10:52:23;;;;;;;2.33;1.82;;;;;;;24.27;33.54;98660.63;1860334;75;28374;-37
2023/04/15 10:55:17;;;;;;;2.65;1.50;;;;;;;24.27;33.50;98666.91;1867911;75;28225;-38
2023/04/15 10:58:06;;;;;;;1.70;1.60;;;;;;;24.26;33.83;98665.28;1824717;77;28298;-38
2023/04/15 11:00:54;;;;;;;1.85;1.40;;;;;;;24.27;33.78;98664.17;1857074;77;28207;-38
2023/04/15 11:03:44;;;;;;;2.10;1.72;;;;;;;24.27;33.79;98666.11;1822440;77;28244;-40
2023/04/15 11:06:44;;;;;;;3.25;1.67;;;;;;;24.27;33.94;98662.80;1830710;77;28289;-39
2023/04/15 11:09:34;;;;;;;2.58;1.65;;;;;;;24.27;33.91;98658.68;1825217;77;28363;-38
2023/04/15 11:12:23;;;;;;;1.60;1.50;;;;;;;24.27;33.92;98666.91;1812837;78;28288;-38
2023/04/15 11:15:39;;;;;;;2.15;1.40;;;;;;;24.27;33.88;98660.05;1846266;77;28247;-38
2023/04/15 11:18:30;;;;;;;2.40;1.72;;;;;;;24.30;33.85;98655.95;1836457;77;27897;-38
2023/04/15 11:21:19;;;;;;;1.60;1.50;;;;;;;24.28;33.87;98655.39;1857085;76;28329;-38
2023/04/15 11:24:08;;;;;;;1.57;1.47;;;;;;;24.28;33.84;98660.34;1843813;77;27826;-38
2023/04/15 11:27:00;;;;;;;2.62;1.67;;;;;;;24.30;33.76;98662.27;1811879;78;30240;-38
2023/04/15 11:29:49;;;;;;;1.70;1.60;;;;;;;24.30;33.78;98665.55;1849810;77;28247;-38
2023/04/15 11:32:39;;;;;;;2.00;1.35;;;;;;;24.30;33.74;98662.81;1857258;77;28154;-39
2023/04/15 11:35:28;;;;;;;2.45;1.50;;;;;;;24.29;33.73;98660.64;1843561;77;36522;-39
2023/04/15 11:38:17;;;;;;;2.35;1.50;;;;;;;24.29;33.68;98649.66;1834773;77;28252;-40
2023/04/15 11:41:06;;;;;;;1.50;1.40;;;;;;;24.30;33.68;98651.30;1853513;76;28309;-40
2023/04/15 11:43:54;;;;;;;1.42;1.32;;;;;;;24.29;33.65;98659.27;1835150;77;28374;-40
2023/04/15 11:46:43;;;;;;;2.02;1.50;;;;;;;24.31;33.62;98679.58;1856897;77;28255;-40
2023/04/15 11:49:32;;;;;;;1.55;1.10;;;;;;;24.28;33.80;98689.16;1839666;77;28483;-38
2023/04/15 11:52:24;;;;;;;1.40;1.30;;;;;;;24.28;33.75;98682.84;1840900;77;28294;-38
2023/04/15 11:55:13;;;;;;;2.47;1.77;;;;;;;24.27;33.59;98709.45;1833314;77;28302;-38
2023/04/15 11:58:19;;;;;;;1.70;1.57;;;;;;;24.28;33.59;98715.23;1841000;77;28332;-38
2023/04/15 12:01:03;;;;;;;2.53;1.57;;;;;;;24.28;33.52;98721.27;1856677;77;28070;-38
2023/04/15 12:03:52;;;;;;;3.83;1.80;;;;;;;24.29;33.49;98732.53;1837280;77;28380;-38
2023/04/15 12:06:40;;;;;;;4.45;1.82;;;;;;;24.27;33.51;98731.41;1850452;77;28183;-39
2023/04/15 12:09:29;;;;;;;2.52;1.62;;;;;;;24.28;33.46;98738.56;1830766;77;28281;-38
2023/04/15 12:12:18;;;;;;;3.45;1.80;;;;;;;24.28;33.44;98739.11;1845788;77;27845;-38
2023/04/15 12:15:09;;;;;;;1.52;1.42;;;;;;;24.29;33.40;98740.23;1812193;78;28390;-38
2023/04/15 12:17:57;;;;;;;2.20;1.80;;;;;;;24.26;33.51;98739.38;1840514;77;32299;-38
2023/04/15 12:20:46;;;;;;;2.65;1.67;;;;;;;24.24;33.56;98742.11;1840664;76;28225;-38
2023/04/15 12:23:40;;;;;;;1.67;1.57;;;;;;;24.25;33.56;98751.44;1814952;77;28418;-38
2023/04/15 12:26:31;;;;;;;1.82;1.32;;;;;;;24.24;33.68;98759.41;1836745;77;28283;-38
2023/04/15 12:29:21;;;;;;;1.90;1.35;;;;;;;24.25;33.55;98776.70;1830630;77;28245;-38
2023/04/15 12:32:12;;;;;;;1.52;1.40;;;;;;;24.22;33.64;98765.70;1852546;76;28195;-38
2023/04/15 12:35:01;;;;;;;2.00;1.50;;;;;;;24.24;33.57;98780.52;1865361;76;28331;-38
2023/04/15 12:37:51;;;;;;;1.95;1.52;;;;;;;24.24;33.86;98788.22;1857481;76;28245;-38
2023/04/15 12:40:38;;;;;;;1.50;1.40;;;;;;;24.24;33.88;98793.71;1833739;77;28490;-38
2023/04/15 12:43:27;;;;;;;1.70;1.57;;;;;;;24.25;33.84;98789.05;1852394;76;28243;-38
2023/04/15 12:46:15;;;;;;;1.62;1.52;;;;;;;24.25;33.91;98791.23;1819219;77;28191;-38
2023/04/15 12:49:04;;;;;;;2.00;1.60;;;;;;;24.27;33.96;98791.79;1871708;76;28222;-38
2023/04/15 12:51:55;;;;;;;2.70;1.85;;;;;;;24.27;33.99;98792.36;1833488;77;28394;-39
2023/04/15 12:54:43;;;;;;;1.82;1.47;;;;;;;24.28;33.90;98793.45;1851416;76;28307;-38
2023/04/15 12:57:31;;;;;;;2.40;1.65;;;;;;;24.20;33.98;98780.20;1846104;76;28244;-38
2023/04/15 13:00:20;;;;;;;1.70;1.60;;;;;;;24.30;33.97;98791.28;1843681;76;28322;-38
2023/04/15 13:03:08;;;;;;;3.50;1.80;;;;;;;24.29;34.05;98789.64;1850811;76;28272;-38
2023/04/15 13:05:57;;;;;;;1.60;1.32;;;;;;;24.29;33.98;98792.92;1856998;76;28396;-38
2023/04/15 13:08:45;;;;;;;2.30;1.55;;;;;;;24.30;34.00;98791.28;1861699;76;28210;-38
2023/04/15 13:11:35;;;;;;;2.00;1.45;;;;;;;24.32;34.01;98792.41;1845743;76;28272;-38
2023/04/15 13:14:23;;;;;;;1.65;1.27;;;;;;;24.24;33.95;98781.36;1837684;77;28287;-39
2023/04/15 13:17:11;;;;;;;1.50;1.40;;;;;;;24.32;34.04;98800.07;1862039;76;28263;-39
2023/04/15 13:20:00;;;;;;;4.45;1.37;;;;;;;24.31;34.03;98804.46;1857335;76;28426;-40